sensor_id;sensor_type;location;lat;lon;timestamp;P1;durP1;ratioP1;P2;durP2;ratioP2
12467;SDS011;57850;52.922;6.256;2023-08-07T00:01:21;10.40;;;5.90;;
12467;SDS011;57850;52.922;6.256;2023-08-07T00:03:48;5.75;;;4.88;;
12467;SDS011;57850;52.922;6.256;2023-08-07T00:06:17;6.38;;;4.95;;
12467;SDS011;57850;52.922;6.256;2023-08-07T00:08:43;12.38;;;4.95;;
12467;SDS011;57850;52.922;6.256;2023-08-07T00:11:10;7.45;;;4.20;;
12467;SDS011;57850;52.922;6.256;2023-08-07T00:13:37;5.60;;;4.85;;
12467;SDS011;57850;52.922;6.256;2023-08-07T00:16:03;7.95;;;4.90;;
12467;SDS011;57850;52.922;6.256;2023-08-07T00:18:30;6.10;;;4.70;;
12467;SDS011;57850;52.922;6.256;2023-08-07T00:20:56;6.40;;;4.50;;
12467;SDS011;57850;52.922;6.256;2023-08-07T00:23:25;6.80;;;4.93;;
12467;SDS011;57850;52.922;6.256;2023-08-07T00:25:51;7.45;;;4.38;;
12467;SDS011;57850;52.922;6.256;2023-08-07T00:28:18;6.97;;;4.68;;
12467;SDS011;57850;52.922;6.256;2023-08-07T00:30:44;8.38;;;4.47;;
12467;SDS011;57850;52.922;6.256;2023-08-07T00:33:11;9.55;;;5.22;;
12467;SDS011;57850;52.922;6.256;2023-08-07T00:35:37;5.93;;;4.85;;
12467;SDS011;57850;52.922;6.256;2023-08-07T00:38:04;7.53;;;4.78;;
12467;SDS011;57850;52.922;6.256;2023-08-07T00:40:37;10.00;;;5.18;;
12467;SDS011;57850;52.922;6.256;2023-08-07T00:43:04;6.75;;;5.00;;
12467;SDS011;57850;52.922;6.256;2023-08-07T00:45:32;5.20;;;4.53;;
12467;SDS011;57850;52.922;6.256;2023-08-07T00:48:02;5.70;;;4.43;;
12467;SDS011;57850;52.922;6.256;2023-08-07T00:50:30;6.35;;;4.13;;
12467;SDS011;57850;52.922;6.256;2023-08-07T00:52:57;5.50;;;4.13;;
12467;SDS011;57850;52.922;6.256;2023-08-07T00:55:23;4.97;;;3.80;;
12467;SDS011;57850;52.922;6.256;2023-08-07T00:57:52;6.68;;;4.38;;
12467;SDS011;57850;52.922;6.256;2023-08-07T01:00:19;6.13;;;3.80;;
12467;SDS011;57850;52.922;6.256;2023-08-07T01:02:47;8.68;;;3.70;;
12467;SDS011;57850;52.922;6.256;2023-08-07T01:05:16;7.63;;;3.70;;
12467;SDS011;57850;52.922;6.256;2023-08-07T01:07:45;6.93;;;3.28;;
12467;SDS011;57850;52.922;6.256;2023-08-07T01:10:16;8.77;;;3.42;;
12467;SDS011;57850;52.922;6.256;2023-08-07T01:12:46;8.88;;;3.67;;
12467;SDS011;57850;52.922;6.256;2023-08-07T01:15:20;5.78;;;2.95;;
12467;SDS011;57850;52.922;6.256;2023-08-07T01:17:51;8.15;;;3.33;;
12467;SDS011;57850;52.922;6.256;2023-08-07T01:20:20;9.75;;;3.50;;
12467;SDS011;57850;52.922;6.256;2023-08-07T01:22:49;8.60;;;3.22;;
12467;SDS011;57850;52.922;6.256;2023-08-07T01:25:15;9.88;;;2.92;;
12467;SDS011;57850;52.922;6.256;2023-08-07T01:27:44;7.65;;;3.15;;
12467;SDS011;57850;52.922;6.256;2023-08-07T01:30:19;6.05;;;2.70;;
12467;SDS011;57850;52.922;6.256;2023-08-07T01:32:54;6.25;;;2.80;;
12467;SDS011;57850;52.922;6.256;2023-08-07T01:35:26;9.18;;;3.38;;
12467;SDS011;57850;52.922;6.256;2023-08-07T01:37:57;8.98;;;2.67;;
12467;SDS011;57850;52.922;6.256;2023-08-07T01:40:25;6.10;;;2.80;;
12467;SDS011;57850;52.922;6.256;2023-08-07T01:42:52;6.93;;;3.22;;
12467;SDS011;57850;52.922;6.256;2023-08-07T01:45:22;9.00;;;3.63;;
12467;SDS011;57850;52.922;6.256;2023-08-07T01:47:50;7.70;;;3.40;;
12467;SDS011;57850;52.922;6.256;2023-08-07T01:50:18;7.65;;;3.10;;
12467;SDS011;57850;52.922;6.256;2023-08-07T01:52:45;7.30;;;2.67;;
12467;SDS011;57850;52.922;6.256;2023-08-07T01:55:13;9.70;;;2.72;;
12467;SDS011;57850;52.922;6.256;2023-08-07T01:57:41;6.05;;;2.75;;
12467;SDS011;57850;52.922;6.256;2023-08-07T02:00:08;7.82;;;2.95;;
12467;SDS011;57850;52.922;6.256;2023-08-07T02:02:35;7.70;;;2.28;;
12467;SDS011;57850;52.922;6.256;2023-08-07T02:05:02;5.47;;;2.55;;
12467;SDS011;57850;52.922;6.256;2023-08-07T02:07:29;10.35;;;2.30;;
12467;SDS011;57850;52.922;6.256;2023-08-07T02:09:56;7.43;;;2.53;;
12467;SDS011;57850;52.922;6.256;2023-08-07T02:12:24;5.88;;;2.67;;
12467;SDS011;57850;52.922;6.256;2023-08-07T02:14:52;7.97;;;2.80;;
12467;SDS011;57850;52.922;6.256;2023-08-07T02:17:20;10.77;;;3.13;;
12467;SDS011;57850;52.922;6.256;2023-08-07T02:19:47;7.03;;;2.40;;
12467;SDS011;57850;52.922;6.256;2023-08-07T02:22:14;7.65;;;2.95;;
12467;SDS011;57850;52.922;6.256;2023-08-07T02:24:41;5.60;;;2.65;;
12467;SDS011;57850;52.922;6.256;2023-08-07T02:27:08;10.15;;;2.90;;
12467;SDS011;57850;52.922;6.256;2023-08-07T02:29:36;5.55;;;2.38;;
12467;SDS011;57850;52.922;6.256;2023-08-07T02:32:03;7.05;;;2.95;;
12467;SDS011;57850;52.922;6.256;2023-08-07T02:34:30;10.90;;;2.92;;
12467;SDS011;57850;52.922;6.256;2023-08-07T02:36:56;6.13;;;2.30;;
12467;SDS011;57850;52.922;6.256;2023-08-07T02:39:24;12.13;;;2.92;;
12467;SDS011;57850;52.922;6.256;2023-08-07T02:41:50;12.20;;;2.83;;
12467;SDS011;57850;52.922;6.256;2023-08-07T02:44:17;9.00;;;2.17;;
12467;SDS011;57850;52.922;6.256;2023-08-07T02:46:46;3.65;;;2.08;;
12467;SDS011;57850;52.922;6.256;2023-08-07T02:49:13;11.32;;;3.40;;
12467;SDS011;57850;52.922;6.256;2023-08-07T02:51:40;7.68;;;2.42;;
12467;SDS011;57850;52.922;6.256;2023-08-07T02:54:07;11.07;;;2.55;;
12467;SDS011;57850;52.922;6.256;2023-08-07T02:56:33;10.85;;;2.80;;
12467;SDS011;57850;52.922;6.256;2023-08-07T02:59:00;7.65;;;2.88;;
12467;SDS011;57850;52.922;6.256;2023-08-07T03:01:27;8.23;;;2.60;;
12467;SDS011;57850;52.922;6.256;2023-08-07T03:03:55;7.65;;;2.25;;
12467;SDS011;57850;52.922;6.256;2023-08-07T03:06:22;8.15;;;2.70;;
12467;SDS011;57850;52.922;6.256;2023-08-07T03:08:49;11.43;;;2.10;;
12467;SDS011;57850;52.922;6.256;2023-08-07T03:11:15;19.92;;;2.20;;
12467;SDS011;57850;52.922;6.256;2023-08-07T03:13:42;7.03;;;2.20;;
12467;SDS011;57850;52.922;6.256;2023-08-07T03:16:09;9.02;;;2.70;;
12467;SDS011;57850;52.922;6.256;2023-08-07T03:18:36;7.90;;;2.13;;
12467;SDS011;57850;52.922;6.256;2023-08-07T03:21:04;8.13;;;2.58;;
12467;SDS011;57850;52.922;6.256;2023-08-07T03:23:31;9.75;;;2.75;;
12467;SDS011;57850;52.922;6.256;2023-08-07T03:26:04;7.82;;;2.33;;
12467;SDS011;57850;52.922;6.256;2023-08-07T03:28:31;11.98;;;2.78;;
12467;SDS011;57850;52.922;6.256;2023-08-07T03:30:58;10.15;;;3.22;;
12467;SDS011;57850;52.922;6.256;2023-08-07T03:33:25;8.60;;;2.88;;
12467;SDS011;57850;52.922;6.256;2023-08-07T03:35:51;16.88;;;3.22;;
12467;SDS011;57850;52.922;6.256;2023-08-07T03:38:20;7.32;;;3.20;;
12467;SDS011;57850;52.922;6.256;2023-08-07T03:40:47;5.43;;;3.08;;
12467;SDS011;57850;52.922;6.256;2023-08-07T03:43:14;9.57;;;3.03;;
12467;SDS011;57850;52.922;6.256;2023-08-07T03:45:41;5.00;;;2.78;;
12467;SDS011;57850;52.922;6.256;2023-08-07T03:48:07;5.85;;;2.92;;
12467;SDS011;57850;52.922;6.256;2023-08-07T03:50:34;9.25;;;2.42;;
12467;SDS011;57850;52.922;6.256;2023-08-07T03:53:02;4.93;;;2.38;;
12467;SDS011;57850;52.922;6.256;2023-08-07T03:55:30;3.63;;;2.30;;
12467;SDS011;57850;52.922;6.256;2023-08-07T03:57:57;3.95;;;2.55;;
12467;SDS011;57850;52.922;6.256;2023-08-07T04:00:24;5.07;;;2.22;;
12467;SDS011;57850;52.922;6.256;2023-08-07T04:02:50;3.78;;;2.50;;
12467;SDS011;57850;52.922;6.256;2023-08-07T04:05:17;4.75;;;2.78;;
12467;SDS011;57850;52.922;6.256;2023-08-07T04:07:44;9.02;;;3.38;;
12467;SDS011;57850;52.922;6.256;2023-08-07T04:10:11;7.68;;;2.70;;
12467;SDS011;57850;52.922;6.256;2023-08-07T04:12:39;7.57;;;3.40;;
12467;SDS011;57850;52.922;6.256;2023-08-07T04:15:06;5.32;;;2.90;;
12467;SDS011;57850;52.922;6.256;2023-08-07T04:17:34;9.00;;;3.40;;
12467;SDS011;57850;52.922;6.256;2023-08-07T04:20:01;6.97;;;3.50;;
12467;SDS011;57850;52.922;6.256;2023-08-07T04:22:28;5.85;;;3.65;;
12467;SDS011;57850;52.922;6.256;2023-08-07T04:24:55;9.60;;;3.45;;
12467;SDS011;57850;52.922;6.256;2023-08-07T04:27:21;6.13;;;3.13;;
12467;SDS011;57850;52.922;6.256;2023-08-07T04:29:49;10.20;;;3.60;;
12467;SDS011;57850;52.922;6.256;2023-08-07T04:32:16;6.95;;;3.03;;
12467;SDS011;57850;52.922;6.256;2023-08-07T04:34:43;21.67;;;6.13;;
12467;SDS011;57850;52.922;6.256;2023-08-07T04:37:10;11.65;;;4.03;;
12467;SDS011;57850;52.922;6.256;2023-08-07T04:39:36;10.18;;;4.22;;
12467;SDS011;57850;52.922;6.256;2023-08-07T04:42:03;8.05;;;3.78;;
12467;SDS011;57850;52.922;6.256;2023-08-07T04:44:30;15.23;;;4.10;;
12467;SDS011;57850;52.922;6.256;2023-08-07T04:46:58;10.43;;;3.20;;
12467;SDS011;57850;52.922;6.256;2023-08-07T04:49:25;10.98;;;4.25;;
12467;SDS011;57850;52.922;6.256;2023-08-07T04:51:52;7.18;;;3.67;;
12467;SDS011;57850;52.922;6.256;2023-08-07T04:54:20;7.90;;;3.28;;
12467;SDS011;57850;52.922;6.256;2023-08-07T04:56:46;12.95;;;3.78;;
12467;SDS011;57850;52.922;6.256;2023-08-07T04:59:13;9.93;;;3.45;;
12467;SDS011;57850;52.922;6.256;2023-08-07T05:01:40;8.10;;;4.10;;
12467;SDS011;57850;52.922;6.256;2023-08-07T05:04:08;9.45;;;3.45;;
12467;SDS011;57850;52.922;6.256;2023-08-07T05:06:34;7.03;;;3.45;;
12467;SDS011;57850;52.922;6.256;2023-08-07T05:09:02;6.40;;;3.05;;
12467;SDS011;57850;52.922;6.256;2023-08-07T05:11:29;11.38;;;3.60;;
12467;SDS011;57850;52.922;6.256;2023-08-07T05:13:56;13.35;;;3.30;;
12467;SDS011;57850;52.922;6.256;2023-08-07T05:16:22;10.10;;;3.63;;
12467;SDS011;57850;52.922;6.256;2023-08-07T05:18:49;8.48;;;4.03;;
12467;SDS011;57850;52.922;6.256;2023-08-07T05:21:18;6.78;;;4.05;;
12467;SDS011;57850;52.922;6.256;2023-08-07T05:23:45;10.55;;;3.75;;
12467;SDS011;57850;52.922;6.256;2023-08-07T05:26:12;13.98;;;3.78;;
12467;SDS011;57850;52.922;6.256;2023-08-07T05:28:39;12.48;;;4.15;;
12467;SDS011;57850;52.922;6.256;2023-08-07T05:31:06;18.25;;;4.13;;
12467;SDS011;57850;52.922;6.256;2023-08-07T05:33:32;14.65;;;4.43;;
12467;SDS011;57850;52.922;6.256;2023-08-07T05:35:59;11.00;;;3.72;;
12467;SDS011;57850;52.922;6.256;2023-08-07T05:38:27;11.90;;;4.32;;
12467;SDS011;57850;52.922;6.256;2023-08-07T05:40:54;10.27;;;5.15;;
12467;SDS011;57850;52.922;6.256;2023-08-07T05:43:20;8.90;;;3.90;;
12467;SDS011;57850;52.922;6.256;2023-08-07T05:45:47;12.90;;;4.30;;
12467;SDS011;57850;52.922;6.256;2023-08-07T05:48:14;9.82;;;3.72;;
12467;SDS011;57850;52.922;6.256;2023-08-07T05:50:41;11.82;;;4.32;;
12467;SDS011;57850;52.922;6.256;2023-08-07T05:53:07;10.45;;;3.97;;
12467;SDS011;57850;52.922;6.256;2023-08-07T05:55:36;16.60;;;4.35;;
12467;SDS011;57850;52.922;6.256;2023-08-07T05:58:06;9.68;;;4.07;;
12467;SDS011;57850;52.922;6.256;2023-08-07T06:00:33;7.50;;;3.75;;
12467;SDS011;57850;52.922;6.256;2023-08-07T06:02:59;12.13;;;4.38;;
12467;SDS011;57850;52.922;6.256;2023-08-07T06:05:26;9.55;;;4.30;;
12467;SDS011;57850;52.922;6.256;2023-08-07T06:07:53;17.00;;;3.97;;
12467;SDS011;57850;52.922;6.256;2023-08-07T06:10:20;18.80;;;4.57;;
12467;SDS011;57850;52.922;6.256;2023-08-07T06:12:49;11.90;;;4.18;;
12467;SDS011;57850;52.922;6.256;2023-08-07T06:15:16;13.40;;;5.18;;
12467;SDS011;57850;52.922;6.256;2023-08-07T06:17:42;13.70;;;4.03;;
12467;SDS011;57850;52.922;6.256;2023-08-07T06:20:09;9.00;;;4.32;;
12467;SDS011;57850;52.922;6.256;2023-08-07T06:22:36;13.98;;;4.28;;
12467;SDS011;57850;52.922;6.256;2023-08-07T06:25:03;14.15;;;4.45;;
12467;SDS011;57850;52.922;6.256;2023-08-07T06:27:30;12.77;;;3.50;;
12467;SDS011;57850;52.922;6.256;2023-08-07T06:29:58;20.48;;;4.70;;
12467;SDS011;57850;52.922;6.256;2023-08-07T06:32:25;11.48;;;4.63;;
12467;SDS011;57850;52.922;6.256;2023-08-07T06:34:52;13.07;;;4.07;;
12467;SDS011;57850;52.922;6.256;2023-08-07T06:37:19;17.08;;;4.22;;
12467;SDS011;57850;52.922;6.256;2023-08-07T06:39:46;8.32;;;3.40;;
12467;SDS011;57850;52.922;6.256;2023-08-07T06:42:12;10.77;;;4.05;;
12467;SDS011;57850;52.922;6.256;2023-08-07T06:44:39;10.02;;;3.60;;
12467;SDS011;57850;52.922;6.256;2023-08-07T06:47:07;15.50;;;4.82;;
12467;SDS011;57850;52.922;6.256;2023-08-07T06:49:34;15.10;;;5.15;;
12467;SDS011;57850;52.922;6.256;2023-08-07T06:52:01;10.82;;;3.65;;
12467;SDS011;57850;52.922;6.256;2023-08-07T06:54:28;11.38;;;4.38;;
12467;SDS011;57850;52.922;6.256;2023-08-07T06:56:54;13.57;;;4.93;;
12467;SDS011;57850;52.922;6.256;2023-08-07T06:59:21;11.00;;;4.20;;
12467;SDS011;57850;52.922;6.256;2023-08-07T07:01:48;10.88;;;4.07;;
12467;SDS011;57850;52.922;6.256;2023-08-07T07:04:17;8.25;;;3.33;;
12467;SDS011;57850;52.922;6.256;2023-08-07T07:06:44;9.73;;;3.25;;
12467;SDS011;57850;52.922;6.256;2023-08-07T07:09:10;9.38;;;3.17;;
12467;SDS011;57850;52.922;6.256;2023-08-07T07:11:41;8.45;;;3.25;;
12467;SDS011;57850;52.922;6.256;2023-08-07T07:14:08;9.35;;;3.03;;
12467;SDS011;57850;52.922;6.256;2023-08-07T07:16:34;12.07;;;3.28;;
12467;SDS011;57850;52.922;6.256;2023-08-07T07:19:03;9.10;;;3.20;;
12467;SDS011;57850;52.922;6.256;2023-08-07T07:21:31;8.23;;;3.33;;
12467;SDS011;57850;52.922;6.256;2023-08-07T07:23:57;10.20;;;3.72;;
12467;SDS011;57850;52.922;6.256;2023-08-07T07:26:24;5.63;;;2.85;;
12467;SDS011;57850;52.922;6.256;2023-08-07T07:28:51;8.73;;;3.88;;
12467;SDS011;57850;52.922;6.256;2023-08-07T07:31:17;9.85;;;2.95;;
12467;SDS011;57850;52.922;6.256;2023-08-07T07:33:44;6.25;;;2.45;;
12467;SDS011;57850;52.922;6.256;2023-08-07T07:36:13;5.75;;;2.60;;
12467;SDS011;57850;52.922;6.256;2023-08-07T07:38:42;4.93;;;2.35;;
12467;SDS011;57850;52.922;6.256;2023-08-07T07:41:09;2.95;;;1.83;;
12467;SDS011;57850;52.922;6.256;2023-08-07T07:43:36;5.78;;;2.03;;
12467;SDS011;57850;52.922;6.256;2023-08-07T07:46:03;4.90;;;2.25;;
12467;SDS011;57850;52.922;6.256;2023-08-07T07:48:29;3.83;;;1.90;;
12467;SDS011;57850;52.922;6.256;2023-08-07T07:50:57;5.07;;;1.80;;
12467;SDS011;57850;52.922;6.256;2023-08-07T07:53:24;6.38;;;2.65;;
12467;SDS011;57850;52.922;6.256;2023-08-07T07:55:52;9.25;;;2.42;;
12467;SDS011;57850;52.922;6.256;2023-08-07T07:58:19;9.57;;;2.45;;
12467;SDS011;57850;52.922;6.256;2023-08-07T08:00:46;6.15;;;2.30;;
12467;SDS011;57850;52.922;6.256;2023-08-07T08:03:12;5.03;;;2.97;;
12467;SDS011;57850;52.922;6.256;2023-08-07T08:05:39;6.95;;;2.47;;
12467;SDS011;57850;52.922;6.256;2023-08-07T08:08:06;8.27;;;2.60;;
12467;SDS011;57850;52.922;6.256;2023-08-07T08:10:33;9.40;;;2.67;;
12467;SDS011;57850;52.922;6.256;2023-08-07T08:13:01;7.43;;;3.13;;
12467;SDS011;57850;52.922;6.256;2023-08-07T08:15:28;12.45;;;3.20;;
12467;SDS011;57850;52.922;6.256;2023-08-07T08:17:55;7.28;;;3.00;;
12467;SDS011;57850;52.922;6.256;2023-08-07T08:20:22;5.60;;;3.38;;
12467;SDS011;57850;52.922;6.256;2023-08-07T08:22:49;6.55;;;2.25;;
12467;SDS011;57850;52.922;6.256;2023-08-07T08:25:16;4.20;;;2.47;;
12467;SDS011;57850;52.922;6.256;2023-08-07T08:27:43;5.20;;;3.10;;
12467;SDS011;57850;52.922;6.256;2023-08-07T08:30:12;9.38;;;3.97;;
12467;SDS011;57850;52.922;6.256;2023-08-07T08:32:38;5.90;;;2.80;;
12467;SDS011;57850;52.922;6.256;2023-08-07T08:35:05;8.43;;;3.42;;
12467;SDS011;57850;52.922;6.256;2023-08-07T08:37:33;6.95;;;3.22;;
12467;SDS011;57850;52.922;6.256;2023-08-07T08:39:59;8.13;;;3.42;;
12467;SDS011;57850;52.922;6.256;2023-08-07T08:42:26;8.52;;;3.40;;
12467;SDS011;57850;52.922;6.256;2023-08-07T08:44:53;7.20;;;3.17;;
12467;SDS011;57850;52.922;6.256;2023-08-07T08:47:23;10.48;;;2.88;;
12467;SDS011;57850;52.922;6.256;2023-08-07T08:50:01;10.45;;;3.50;;
12467;SDS011;57850;52.922;6.256;2023-08-07T08:52:31;7.90;;;3.30;;
12467;SDS011;57850;52.922;6.256;2023-08-07T08:54:58;6.43;;;3.20;;
12467;SDS011;57850;52.922;6.256;2023-08-07T08:57:25;8.15;;;3.72;;
12467;SDS011;57850;52.922;6.256;2023-08-07T08:59:52;12.63;;;3.22;;
12467;SDS011;57850;52.922;6.256;2023-08-07T09:02:19;6.43;;;2.83;;
12467;SDS011;57850;52.922;6.256;2023-08-07T09:04:48;6.65;;;3.03;;
12467;SDS011;57850;52.922;6.256;2023-08-07T09:07:15;7.85;;;2.70;;
12467;SDS011;57850;52.922;6.256;2023-08-07T09:09:42;7.45;;;2.60;;
12467;SDS011;57850;52.922;6.256;2023-08-07T09:12:14;5.18;;;2.85;;
12467;SDS011;57850;52.922;6.256;2023-08-07T09:14:46;5.32;;;2.22;;
12467;SDS011;57850;52.922;6.256;2023-08-07T09:17:16;5.28;;;2.28;;
12467;SDS011;57850;52.922;6.256;2023-08-07T09:19:43;7.20;;;2.70;;
12467;SDS011;57850;52.922;6.256;2023-08-07T09:22:12;6.45;;;2.60;;
12467;SDS011;57850;52.922;6.256;2023-08-07T09:24:38;9.50;;;3.22;;
12467;SDS011;57850;52.922;6.256;2023-08-07T09:27:06;4.68;;;2.20;;
12467;SDS011;57850;52.922;6.256;2023-08-07T09:29:33;5.80;;;3.13;;
12467;SDS011;57850;52.922;6.256;2023-08-07T09:32:05;6.35;;;2.55;;
12467;SDS011;57850;52.922;6.256;2023-08-07T09:34:33;5.65;;;2.15;;
12467;SDS011;57850;52.922;6.256;2023-08-07T09:37:00;10.10;;;2.80;;
12467;SDS011;57850;52.922;6.256;2023-08-07T09:39:29;6.05;;;2.53;;
12467;SDS011;57850;52.922;6.256;2023-08-07T09:41:56;5.97;;;2.50;;
12467;SDS011;57850;52.922;6.256;2023-08-07T09:44:23;4.90;;;2.30;;
12467;SDS011;57850;52.922;6.256;2023-08-07T09:46:49;7.70;;;3.30;;
12467;SDS011;57850;52.922;6.256;2023-08-07T09:49:18;5.50;;;2.75;;
12467;SDS011;57850;52.922;6.256;2023-08-07T09:51:45;8.77;;;2.83;;
12467;SDS011;57850;52.922;6.256;2023-08-07T09:54:12;4.40;;;2.60;;
12467;SDS011;57850;52.922;6.256;2023-08-07T09:56:41;6.63;;;2.55;;
12467;SDS011;57850;52.922;6.256;2023-08-07T09:59:07;6.03;;;2.70;;
12467;SDS011;57850;52.922;6.256;2023-08-07T10:01:36;8.32;;;2.83;;
12467;SDS011;57850;52.922;6.256;2023-08-07T10:04:03;5.93;;;2.65;;
12467;SDS011;57850;52.922;6.256;2023-08-07T10:06:31;6.07;;;2.03;;
12467;SDS011;57850;52.922;6.256;2023-08-07T10:08:58;4.65;;;2.53;;
12467;SDS011;57850;52.922;6.256;2023-08-07T10:11:27;4.35;;;2.30;;
12467;SDS011;57850;52.922;6.256;2023-08-07T10:13:56;4.97;;;3.22;;
12467;SDS011;57850;52.922;6.256;2023-08-07T10:16:24;5.38;;;2.15;;
12467;SDS011;57850;52.922;6.256;2023-08-07T10:18:52;6.25;;;2.35;;
12467;SDS011;57850;52.922;6.256;2023-08-07T10:21:19;5.10;;;2.35;;
12467;SDS011;57850;52.922;6.256;2023-08-07T10:23:48;5.93;;;2.20;;
12467;SDS011;57850;52.922;6.256;2023-08-07T10:26:18;9.05;;;2.25;;
12467;SDS011;57850;52.922;6.256;2023-08-07T10:28:47;7.20;;;2.20;;
12467;SDS011;57850;52.922;6.256;2023-08-07T10:31:18;3.45;;;2.33;;
12467;SDS011;57850;52.922;6.256;2023-08-07T10:33:47;4.88;;;2.83;;
12467;SDS011;57850;52.922;6.256;2023-08-07T10:36:15;7.68;;;2.47;;
12467;SDS011;57850;52.922;6.256;2023-08-07T10:38:42;8.38;;;2.15;;
12467;SDS011;57850;52.922;6.256;2023-08-07T10:41:10;4.88;;;3.08;;
12467;SDS011;57850;52.922;6.256;2023-08-07T10:43:38;5.55;;;2.13;;
12467;SDS011;57850;52.922;6.256;2023-08-07T10:46:07;5.53;;;3.05;;
12467;SDS011;57850;52.922;6.256;2023-08-07T10:48:41;5.95;;;2.28;;
12467;SDS011;57850;52.922;6.256;2023-08-07T10:51:11;4.07;;;2.20;;
12467;SDS011;57850;52.922;6.256;2023-08-07T10:53:40;6.13;;;2.17;;
12467;SDS011;57850;52.922;6.256;2023-08-07T10:56:10;6.35;;;2.58;;
12467;SDS011;57850;52.922;6.256;2023-08-07T10:58:38;5.80;;;2.05;;
12467;SDS011;57850;52.922;6.256;2023-08-07T11:01:18;3.90;;;2.05;;
12467;SDS011;57850;52.922;6.256;2023-08-07T11:03:52;4.03;;;1.95;;
12467;SDS011;57850;52.922;6.256;2023-08-07T11:06:23;4.32;;;2.10;;
12467;SDS011;57850;52.922;6.256;2023-08-07T11:08:52;4.35;;;2.00;;
12467;SDS011;57850;52.922;6.256;2023-08-07T11:11:19;3.90;;;2.55;;
12467;SDS011;57850;52.922;6.256;2023-08-07T11:13:47;4.75;;;1.77;;
12467;SDS011;57850;52.922;6.256;2023-08-07T11:16:13;5.25;;;2.03;;
12467;SDS011;57850;52.922;6.256;2023-08-07T11:18:41;3.25;;;1.70;;
12467;SDS011;57850;52.922;6.256;2023-08-07T11:21:10;4.85;;;2.10;;
12467;SDS011;57850;52.922;6.256;2023-08-07T11:23:37;5.00;;;2.10;;
12467;SDS011;57850;52.922;6.256;2023-08-07T11:26:04;5.13;;;1.80;;
12467;SDS011;57850;52.922;6.256;2023-08-07T11:28:31;5.35;;;2.95;;
12467;SDS011;57850;52.922;6.256;2023-08-07T11:30:58;6.78;;;2.35;;
12467;SDS011;57850;52.922;6.256;2023-08-07T11:33:25;5.90;;;2.30;;
12467;SDS011;57850;52.922;6.256;2023-08-07T11:35:52;5.88;;;2.15;;
12467;SDS011;57850;52.922;6.256;2023-08-07T11:38:31;4.05;;;2.13;;
12467;SDS011;57850;52.922;6.256;2023-08-07T11:40:58;4.93;;;2.28;;
12467;SDS011;57850;52.922;6.256;2023-08-07T11:43:29;4.80;;;2.00;;
12467;SDS011;57850;52.922;6.256;2023-08-07T11:45:56;4.68;;;2.10;;
12467;SDS011;57850;52.922;6.256;2023-08-07T11:48:24;3.22;;;2.30;;
12467;SDS011;57850;52.922;6.256;2023-08-07T11:50:52;7.20;;;2.38;;
12467;SDS011;57850;52.922;6.256;2023-08-07T11:53:19;3.88;;;2.10;;
12467;SDS011;57850;52.922;6.256;2023-08-07T11:55:52;3.45;;;2.20;;
12467;SDS011;57850;52.922;6.256;2023-08-07T11:58:19;4.75;;;2.30;;
12467;SDS011;57850;52.922;6.256;2023-08-07T12:00:47;6.95;;;2.42;;
12467;SDS011;57850;52.922;6.256;2023-08-07T12:03:27;3.53;;;2.30;;
12467;SDS011;57850;52.922;6.256;2023-08-07T12:05:55;5.88;;;2.25;;
12467;SDS011;57850;52.922;6.256;2023-08-07T12:08:22;4.07;;;1.98;;
12467;SDS011;57850;52.922;6.256;2023-08-07T12:10:49;4.93;;;1.90;;
12467;SDS011;57850;52.922;6.256;2023-08-07T12:13:23;4.18;;;2.33;;
12467;SDS011;57850;52.922;6.256;2023-08-07T12:15:51;8.02;;;2.75;;
12467;SDS011;57850;52.922;6.256;2023-08-07T12:18:19;5.22;;;2.42;;
12467;SDS011;57850;52.922;6.256;2023-08-07T12:20:48;10.60;;;2.58;;
12467;SDS011;57850;52.922;6.256;2023-08-07T12:23:15;6.95;;;2.60;;
12467;SDS011;57850;52.922;6.256;2023-08-07T12:25:42;5.47;;;2.65;;
12467;SDS011;57850;52.922;6.256;2023-08-07T12:28:09;5.20;;;2.63;;
12467;SDS011;57850;52.922;6.256;2023-08-07T12:30:37;4.60;;;2.40;;
12467;SDS011;57850;52.922;6.256;2023-08-07T12:33:04;7.93;;;2.50;;
12467;SDS011;57850;52.922;6.256;2023-08-07T12:35:32;6.00;;;2.50;;
12467;SDS011;57850;52.922;6.256;2023-08-07T12:37:59;3.85;;;2.70;;
12467;SDS011;57850;52.922;6.256;2023-08-07T12:40:26;5.28;;;2.33;;
12467;SDS011;57850;52.922;6.256;2023-08-07T12:42:53;4.20;;;2.00;;
12467;SDS011;57850;52.922;6.256;2023-08-07T12:45:20;3.13;;;1.98;;
12467;SDS011;57850;52.922;6.256;2023-08-07T12:47:48;2.20;;;1.90;;
12467;SDS011;57850;52.922;6.256;2023-08-07T12:50:14;3.80;;;2.03;;
12467;SDS011;57850;52.922;6.256;2023-08-07T12:52:41;2.67;;;1.70;;
12467;SDS011;57850;52.922;6.256;2023-08-07T12:55:09;2.72;;;2.13;;
12467;SDS011;57850;52.922;6.256;2023-08-07T12:57:37;4.95;;;2.53;;
12467;SDS011;57850;52.922;6.256;2023-08-07T13:00:04;5.40;;;2.00;;
12467;SDS011;57850;52.922;6.256;2023-08-07T13:02:33;4.03;;;1.90;;
12467;SDS011;57850;52.922;6.256;2023-08-07T13:05:01;4.15;;;2.50;;
12467;SDS011;57850;52.922;6.256;2023-08-07T13:07:27;3.70;;;2.47;;
12467;SDS011;57850;52.922;6.256;2023-08-07T13:09:54;3.92;;;2.72;;
12467;SDS011;57850;52.922;6.256;2023-08-07T13:12:23;7.40;;;3.22;;
12467;SDS011;57850;52.922;6.256;2023-08-07T13:14:49;4.70;;;2.70;;
12467;SDS011;57850;52.922;6.256;2023-08-07T13:17:16;6.22;;;3.03;;
12467;SDS011;57850;52.922;6.256;2023-08-07T13:19:42;9.65;;;2.70;;
12467;SDS011;57850;52.922;6.256;2023-08-07T13:22:10;7.03;;;2.97;;
12467;SDS011;57850;52.922;6.256;2023-08-07T13:24:37;7.80;;;2.95;;
12467;SDS011;57850;52.922;6.256;2023-08-07T13:27:04;7.85;;;3.13;;
12467;SDS011;57850;52.922;6.256;2023-08-07T13:29:31;6.50;;;2.83;;
12467;SDS011;57850;52.922;6.256;2023-08-07T13:31:57;8.73;;;3.35;;
12467;SDS011;57850;52.922;6.256;2023-08-07T13:34:25;8.55;;;3.28;;
12467;SDS011;57850;52.922;6.256;2023-08-07T13:36:51;6.70;;;3.28;;
12467;SDS011;57850;52.922;6.256;2023-08-07T13:39:20;6.70;;;3.22;;
12467;SDS011;57850;52.922;6.256;2023-08-07T13:41:47;9.10;;;3.72;;
12467;SDS011;57850;52.922;6.256;2023-08-07T13:44:13;4.47;;;3.33;;
12467;SDS011;57850;52.922;6.256;2023-08-07T13:46:40;7.35;;;2.85;;
12467;SDS011;57850;52.922;6.256;2023-08-07T13:49:06;6.30;;;2.72;;
12467;SDS011;57850;52.922;6.256;2023-08-07T13:51:33;6.00;;;3.05;;
12467;SDS011;57850;52.922;6.256;2023-08-07T13:53:59;6.82;;;3.35;;
12467;SDS011;57850;52.922;6.256;2023-08-07T13:56:27;8.00;;;2.58;;
12467;SDS011;57850;52.922;6.256;2023-08-07T13:58:54;4.63;;;2.40;;
12467;SDS011;57850;52.922;6.256;2023-08-07T14:01:20;8.85;;;2.55;;
12467;SDS011;57850;52.922;6.256;2023-08-07T14:03:47;7.10;;;2.70;;
12467;SDS011;57850;52.922;6.256;2023-08-07T14:06:14;6.05;;;2.90;;
12467;SDS011;57850;52.922;6.256;2023-08-07T14:08:40;3.78;;;2.50;;
12467;SDS011;57850;52.922;6.256;2023-08-07T14:11:07;7.93;;;2.38;;
12467;SDS011;57850;52.922;6.256;2023-08-07T14:13:35;5.05;;;2.30;;
12467;SDS011;57850;52.922;6.256;2023-08-07T14:16:01;9.25;;;2.80;;
12467;SDS011;57850;52.922;6.256;2023-08-07T14:18:28;3.97;;;2.90;;
12467;SDS011;57850;52.922;6.256;2023-08-07T14:20:54;7.70;;;2.72;;
12467;SDS011;57850;52.922;6.256;2023-08-07T14:23:21;5.75;;;2.60;;
12467;SDS011;57850;52.922;6.256;2023-08-07T14:25:49;5.30;;;2.70;;
12467;SDS011;57850;52.922;6.256;2023-08-07T14:28:17;6.68;;;2.50;;
12467;SDS011;57850;52.922;6.256;2023-08-07T14:30:46;5.95;;;2.55;;
12467;SDS011;57850;52.922;6.256;2023-08-07T14:33:13;6.85;;;2.80;;
12467;SDS011;57850;52.922;6.256;2023-08-07T14:35:40;5.10;;;2.17;;
12467;SDS011;57850;52.922;6.256;2023-08-07T14:38:07;3.40;;;2.03;;
12467;SDS011;57850;52.922;6.256;2023-08-07T14:40:33;4.20;;;2.00;;
12467;SDS011;57850;52.922;6.256;2023-08-07T14:43:03;4.75;;;2.33;;
12467;SDS011;57850;52.922;6.256;2023-08-07T14:45:29;4.32;;;2.28;;
12467;SDS011;57850;52.922;6.256;2023-08-07T14:47:57;4.15;;;2.20;;